sensor_id;sensor_type;location;lat;lon;timestamp;pressure;altitude;pressure_sealevel;temperature;humidity
21520;BME280;10921;53.614;9.882;2022-09-02T00:01:32;102006.44;;;13.09;79.06
21520;BME280;10921;53.614;9.882;2022-09-02T00:04:02;102006.78;;;13.15;76.66
21520;BME280;10921;53.614;9.882;2022-09-02T00:06:29;101994.09;;;12.96;78.03
21520;BME280;10921;53.614;9.882;2022-09-02T00:08:57;102006.34;;;12.99;78.65
21520;BME280;10921;53.614;9.882;2022-09-02T00:11:27;102008.22;;;12.98;79.59
21520;BME280;10921;53.614;9.882;2022-09-02T00:13:54;101997.28;;;12.90;79.77
21520;BME280;10921;53.614;9.882;2022-09-02T00:16:21;101993.63;;;12.91;80.36
21520;BME280;10921;53.614;9.882;2022-09-02T00:18:50;101985.63;;;12.80;80.48
21520;BME280;10921;53.614;9.882;2022-09-02T00:21:18;101991.19;;;12.88;80.44
21520;BME280;10921;53.614;9.882;2022-09-02T00:23:45;102000.06;;;12.89;79.43
21520;BME280;10921;53.614;9.882;2022-09-02T00:26:12;101985.63;;;12.80;79.83
21520;BME280;10921;53.614;9.882;2022-09-02T00:28:40;101992.81;;;12.80;80.16
21520;BME280;10921;53.614;9.882;2022-09-02T00:31:16;101995.25;;;12.83;80.30
21520;BME280;10921;53.614;9.882;2022-09-02T00:33:43;101958.09;;;12.57;80.42
21520;BME280;10921;53.614;9.882;2022-09-02T00:36:10;102001.72;;;12.80;80.84
21520;BME280;10921;53.614;9.882;2022-09-02T00:38:37;102000.97;;;12.78;81.12
21520;BME280;10921;53.614;9.882;2022-09-02T00:41:07;101992.84;;;12.68;81.23
21520;BME280;10921;53.614;9.882;2022-09-02T00:46:15;101975.72;;;12.60;81.07
21520;BME280;10921;53.614;9.882;2022-09-02T00:48:48;101996.38;;;12.69;81.43
21520;BME280;10921;53.614;9.882;2022-09-02T00:51:19;102002.47;;;12.71;81.02
21520;BME280;10921;53.614;9.882;2022-09-02T00:53:46;102005.38;;;12.68;81.09
21520;BME280;10921;53.614;9.882;2022-09-02T00:56:19;101977.06;;;12.54;81.27
21520;BME280;10921;53.614;9.882;2022-09-02T00:58:46;101993.88;;;12.56;81.02
21520;BME280;10921;53.614;9.882;2022-09-02T01:01:14;102003.22;;;12.62;81.07
21520;BME280;10921;53.614;9.882;2022-09-02T01:03:40;102007.84;;;12.60;80.97
21520;BME280;10921;53.614;9.882;2022-09-02T01:06:09;102006.28;;;12.57;80.95
21520;BME280;10921;53.614;9.882;2022-09-02T01:08:43;102006.28;;;12.57;81.53
21520;BME280;10921;53.614;9.882;2022-09-02T01:11:12;101971.44;;;12.37;81.46
21520;BME280;10921;53.614;9.882;2022-09-02T01:13:40;101999.63;;;12.52;81.34
21520;BME280;10921;53.614;9.882;2022-09-02T01:16:23;101993.53;;;12.50;82.24
21520;BME280;10921;53.614;9.882;2022-09-02T01:18:52;101994.50;;;12.49;81.85
21520;BME280;10921;53.614;9.882;2022-09-02T01:21:21;101994.75;;;12.46;81.57
21520;BME280;10921;53.614;9.882;2022-09-02T01:23:49;101985.38;;;12.40;81.77
21520;BME280;10921;53.614;9.882;2022-09-02T01:26:16;101984.31;;;12.31;81.37
21520;BME280;10921;53.614;9.882;2022-09-02T01:28:43;101997.91;;;12.40;81.84
21520;BME280;10921;53.614;9.882;2022-09-02T01:31:09;101999.88;;;12.38;81.75
21520;BME280;10921;53.614;9.882;2022-09-02T01:33:36;101957.22;;;12.14;81.72
21520;BME280;10921;53.614;9.882;2022-09-02T01:36:03;101987.72;;;12.33;81.98
21520;BME280;10921;53.614;9.882;2022-09-02T01:38:30;101975.34;;;12.21;81.46
21520;BME280;10921;53.614;9.882;2022-09-02T01:40:57;101972.94;;;12.18;82.14
21520;BME280;10921;53.614;9.882;2022-09-02T01:43:25;101993.56;;;12.27;82.29
21520;BME280;10921;53.614;9.882;2022-09-02T01:45:54;101986.53;;;12.26;82.60
21520;BME280;10921;53.614;9.882;2022-09-02T01:48:21;101988.00;;;12.19;82.52
21520;BME280;10921;53.614;9.882;2022-09-02T01:50:55;101983.38;;;12.21;82.95
21520;BME280;10921;53.614;9.882;2022-09-02T01:53:22;101984.72;;;12.16;82.05
21520;BME280;10921;53.614;9.882;2022-09-02T01:55:49;101972.56;;;12.12;82.67
21520;BME280;10921;53.614;9.882;2022-09-02T01:58:16;101980.47;;;12.13;83.10
21520;BME280;10921;53.614;9.882;2022-09-02T02:00:43;101976.94;;;12.13;83.39
21520;BME280;10921;53.614;9.882;2022-09-02T02:03:09;101961.63;;;12.04;83.52
21520;BME280;10921;53.614;9.882;2022-09-02T02:05:36;101940.88;;;11.85;83.26
21520;BME280;10921;53.614;9.882;2022-09-02T02:08:03;101977.28;;;12.08;83.66
21520;BME280;10921;53.614;9.882;2022-09-02T02:10:30;101979.28;;;12.06;83.34
21520;BME280;10921;53.614;9.882;2022-09-02T02:12:59;101972.22;;;12.05;83.26
21520;BME280;10921;53.614;9.882;2022-09-02T02:15:25;101952.91;;;11.90;83.12
21520;BME280;10921;53.614;9.882;2022-09-02T02:17:51;101976.84;;;12.03;83.39
21520;BME280;10921;53.614;9.882;2022-09-02T02:20:19;101967.47;;;11.97;83.93
21520;BME280;10921;53.614;9.882;2022-09-02T02:22:46;101974.53;;;11.98;83.73
21520;BME280;10921;53.614;9.882;2022-09-02T02:25:14;101966.97;;;11.92;83.41
21520;BME280;10921;53.614;9.882;2022-09-02T02:27:41;101970.50;;;11.93;83.50
21520;BME280;10921;53.614;9.882;2022-09-02T02:30:09;101965.44;;;11.90;83.48
21520;BME280;10921;53.614;9.882;2022-09-02T02:32:36;101970.91;;;11.88;83.91
21520;BME280;10921;53.614;9.882;2022-09-02T02:35:03;101948.75;;;11.75;83.60
21520;BME280;10921;53.614;9.882;2022-09-02T02:37:30;101944.00;;;11.68;83.70
21520;BME280;10921;53.614;9.882;2022-09-02T02:39:56;101972.22;;;11.83;83.95
21520;BME280;10921;53.614;9.882;2022-09-02T02:42:23;101946.66;;;11.68;83.94
21520;BME280;10921;53.614;9.882;2022-09-02T02:44:49;101964.44;;;11.80;84.62
21520;BME280;10921;53.614;9.882;2022-09-02T02:47:16;101957.75;;;11.74;84.63
21520;BME280;10921;53.614;9.882;2022-09-02T02:49:43;101958.50;;;11.76;84.70
21520;BME280;10921;53.614;9.882;2022-09-02T02:52:11;101956.88;;;11.74;85.04
21520;BME280;10921;53.614;9.882;2022-09-02T02:54:39;101955.31;;;11.71;84.68
21520;BME280;10921;53.614;9.882;2022-09-02T02:57:06;101964.19;;;11.72;85.04
21520;BME280;10921;53.614;9.882;2022-09-02T02:59:33;101942.06;;;11.58;85.31
21520;BME280;10921;53.614;9.882;2022-09-02T03:01:59;101956.41;;;11.69;84.88
21520;BME280;10921;53.614;9.882;2022-09-02T03:04:26;101951.06;;;11.69;85.14
21520;BME280;10921;53.614;9.882;2022-09-02T03:06:53;101955.53;;;11.68;85.35
21520;BME280;10921;53.614;9.882;2022-09-02T03:09:20;101939.28;;;11.60;85.44
21520;BME280;10921;53.614;9.882;2022-09-02T03:11:46;101955.78;;;11.65;85.39
21520;BME280;10921;53.614;9.882;2022-09-02T03:14:13;101951.78;;;11.59;85.50
21520;BME280;10921;53.614;9.882;2022-09-02T03:16:40;101944.47;;;11.50;85.09
21520;BME280;10921;53.614;9.882;2022-09-02T03:19:07;101953.84;;;11.56;85.15
21520;BME280;10921;53.614;9.882;2022-09-02T03:21:33;101953.84;;;11.56;85.66
21520;BME280;10921;53.614;9.882;2022-09-02T03:24:04;101947.88;;;11.52;85.13
21520;BME280;10921;53.614;9.882;2022-09-02T03:26:31;101950.44;;;11.54;85.49
21520;BME280;10921;53.614;9.882;2022-09-02T03:28:58;101944.47;;;11.50;85.20
21520;BME280;10921;53.614;9.882;2022-09-02T03:31:26;101955.28;;;11.49;85.41
21520;BME280;10921;53.614;9.882;2022-09-02T03:33:53;101956.25;;;11.48;85.66
21520;BME280;10921;53.614;9.882;2022-09-02T03:36:25;101953.84;;;11.45;85.49
21520;BME280;10921;53.614;9.882;2022-09-02T03:38:54;101939.75;;;11.43;85.30
21520;BME280;10921;53.614;9.882;2022-09-02T03:41:21;101939.25;;;11.38;85.71
21520;BME280;10921;53.614;9.882;2022-09-02T03:43:50;101936.69;;;11.36;86.08
21520;BME280;10921;53.614;9.882;2022-09-02T03:46:17;101945.44;;;11.38;85.71
21520;BME280;10921;53.614;9.882;2022-09-02T03:48:45;101941.41;;;11.33;85.82
21520;BME280;10921;53.614;9.882;2022-09-02T03:51:12;101936.94;;;11.33;85.84
21520;BME280;10921;53.614;9.882;2022-09-02T03:53:39;101918.94;;;11.13;85.54
21520;BME280;10921;53.614;9.882;2022-09-02T03:56:07;101936.31;;;11.18;85.68
21520;BME280;10921;53.614;9.882;2022-09-02T03:58:39;101938.38;;;11.26;85.79
21520;BME280;10921;53.614;9.882;2022-09-02T04:01:07;101931.47;;;11.23;86.17
21520;BME280;10921;53.614;9.882;2022-09-02T04:03:33;101939.47;;;11.23;86.14
21520;BME280;10921;53.614;9.882;2022-09-02T04:06:00;101934.72;;;11.16;85.88
21520;BME280;10921;53.614;9.882;2022-09-02T04:08:26;101934.72;;;11.16;86.12
21520;BME280;10921;53.614;9.882;2022-09-02T04:10:53;101897.28;;;10.93;85.95
21520;BME280;10921;53.614;9.882;2022-09-02T04:13:21;101936.91;;;11.11;86.01
21520;BME280;10921;53.614;9.882;2022-09-02T04:15:48;101929.25;;;11.06;85.99
21520;BME280;10921;53.614;9.882;2022-09-02T04:18:15;101929.97;;;11.08;86.10
21520;BME280;10921;53.614;9.882;2022-09-02T04:20:43;101927.53;;;11.05;85.95
21520;BME280;10921;53.614;9.882;2022-09-02T04:23:10;101931.19;;;11.04;85.83
21520;BME280;10921;53.614;9.882;2022-09-02T04:25:39;101917.06;;;10.91;86.37
21520;BME280;10921;53.614;9.882;2022-09-02T04:28:06;101944.06;;;10.99;86.17
21520;BME280;10921;53.614;9.882;2022-09-02T04:30:33;101935.31;;;10.97;86.00
21520;BME280;10921;53.614;9.882;2022-09-02T04:33:00;101937.22;;;10.95;86.37
21520;BME280;10921;53.614;9.882;2022-09-02T04:35:26;101940.03;;;10.93;86.52
21520;BME280;10921;53.614;9.882;2022-09-02T04:37:53;101942.69;;;10.93;86.97
21520;BME280;10921;53.614;9.882;2022-09-02T04:40:19;101936.50;;;10.93;87.09
21520;BME280;10921;53.614;9.882;2022-09-02T04:42:46;101941.84;;;10.93;87.59
21520;BME280;10921;53.614;9.882;2022-09-02T04:45:13;101935.66;;;10.92;87.25
21520;BME280;10921;53.614;9.882;2022-09-02T04:47:39;101943.88;;;10.89;87.12
21520;BME280;10921;53.614;9.882;2022-09-02T04:50:06;101944.75;;;10.90;87.41
21520;BME280;10921;53.614;9.882;2022-09-02T04:52:33;101912.91;;;10.76;87.44
21520;BME280;10921;53.614;9.882;2022-09-02T04:54:59;101932.22;;;10.90;87.92
21520;BME280;10921;53.614;9.882;2022-09-02T04:57:25;101943.66;;;10.92;87.49
21520;BME280;10921;53.614;9.882;2022-09-02T04:59:52;101936.59;;;10.91;87.38
21520;BME280;10921;53.614;9.882;2022-09-02T05:02:19;101938.19;;;10.94;87.74
21520;BME280;10921;53.614;9.882;2022-09-02T05:04:45;101938.66;;;10.88;88.04
21520;BME280;10921;53.614;9.882;2022-09-02T05:07:12;101924.72;;;10.84;88.46
21520;BME280;10921;53.614;9.882;2022-09-02T05:09:39;101940.13;;;10.92;88.70
21520;BME280;10921;53.614;9.882;2022-09-02T05:12:05;101922.03;;;10.84;88.60
21520;BME280;10921;53.614;9.882;2022-09-02T05:14:32;101928.72;;;10.90;88.77
21520;BME280;10921;53.614;9.882;2022-09-02T05:16:59;101938.56;;;11.01;89.09
21520;BME280;10921;53.614;9.882;2022-09-02T05:19:32;101946.00;;;11.08;89.45
21520;BME280;10921;53.614;9.882;2022-09-02T05:21:59;101933.00;;;11.04;89.27
21520;BME280;10921;53.614;9.882;2022-09-02T05:24:27;101941.28;;;11.12;89.49
21520;BME280;10921;53.614;9.882;2022-09-02T05:26:55;101950.50;;;11.19;89.74
21520;BME280;10921;53.614;9.882;2022-09-02T05:29:21;101940.19;;;11.14;90.15
21520;BME280;10921;53.614;9.882;2022-09-02T05:31:49;101912.47;;;11.15;90.66
21520;BME280;10921;53.614;9.882;2022-09-02T05:34:17;101945.69;;;11.35;90.87
21520;BME280;10921;53.614;9.882;2022-09-02T05:36:44;101947.88;;;11.41;90.90
21520;BME280;10921;53.614;9.882;2022-09-02T05:39:10;101936.09;;;11.44;91.20
21520;BME280;10921;53.614;9.882;2022-09-02T05:41:37;101933.06;;;11.48;91.39
21520;BME280;10921;53.614;9.882;2022-09-02T05:44:05;101931.72;;;11.54;91.80
21520;BME280;10921;53.614;9.882;2022-09-02T05:46:32;101930.53;;;11.58;91.57
21520;BME280;10921;53.614;9.882;2022-09-02T05:48:59;101947.41;;;11.70;91.62
21520;BME280;10921;53.614;9.882;2022-09-02T05:51:41;101947.78;;;11.87;92.49
21520;BME280;10921;53.614;9.882;2022-09-02T05:54:16;101951.31;;;11.99;92.54
21520;BME280;10921;53.614;9.882;2022-09-02T05:56:44;101948.59;;;12.10;92.36
21520;BME280;10921;53.614;9.882;2022-09-02T05:59:12;101945.91;;;12.21;92.59
21520;BME280;10921;53.614;9.882;2022-09-02T06:01:39;101949.41;;;12.33;92.80
21520;BME280;10921;53.614;9.882;2022-09-02T06:04:06;101942.84;;;12.37;92.51
21520;BME280;10921;53.614;9.882;2022-09-02T06:06:34;101937.56;;;12.47;92.75
21520;BME280;10921;53.614;9.882;2022-09-02T06:09:01;101947.00;;;12.62;92.44
21520;BME280;10921;53.614;9.882;2022-09-02T06:11:29;101927.41;;;12.61;92.61
21520;BME280;10921;53.614;9.882;2022-09-02T06:13:55;101938.66;;;12.76;92.51
21520;BME280;10921;53.614;9.882;2022-09-02T06:16:22;101946.00;;;12.95;92.76
21520;BME280;10921;53.614;9.882;2022-09-02T06:18:49;101936.19;;;13.05;92.52
21520;BME280;10921;53.614;9.882;2022-09-02T06:21:17;101911.59;;;13.00;91.95
21520;BME280;10921;53.614;9.882;2022-09-02T06:23:46;101937.78;;;13.28;91.77
21520;BME280;10921;53.614;9.882;2022-09-02T06:26:14;101942.22;;;13.39;91.42
21520;BME280;10921;53.614;9.882;2022-09-02T06:28:41;101923.19;;;13.42;90.64
21520;BME280;10921;53.614;9.882;2022-09-02T06:31:16;101928.91;;;13.58;89.59
21520;BME280;10921;53.614;9.882;2022-09-02T06:33:45;101935.44;;;13.75;88.58
21520;BME280;10921;53.614;9.882;2022-09-02T06:36:15;101932.94;;;13.83;88.21
21520;BME280;10921;53.614;9.882;2022-09-02T06:38:44;101928.75;;;14.00;86.66
21520;BME280;10921;53.614;9.882;2022-09-02T06:41:15;101933.00;;;14.12;85.84
21520;BME280;10921;53.614;9.882;2022-09-02T06:43:42;101943.38;;;14.36;84.60
21520;BME280;10921;53.614;9.882;2022-09-02T06:46:20;101932.81;;;14.44;84.05
21520;BME280;10921;53.614;9.882;2022-09-02T06:48:48;101942.00;;;14.70;82.77
21520;BME280;10921;53.614;9.882;2022-09-02T06:51:20;101938.47;;;14.89;82.45
21520;BME280;10921;53.614;9.882;2022-09-02T06:53:47;101941.13;;;15.08;80.78
21520;BME280;10921;53.614;9.882;2022-09-02T06:56:13;101937.94;;;15.32;77.77
21520;BME280;10921;53.614;9.882;2022-09-02T06:58:40;101945.69;;;15.55;77.36
21520;BME280;10921;53.614;9.882;2022-09-02T07:01:09;101933.72;;;15.76;75.04
21520;BME280;10921;53.614;9.882;2022-09-02T07:03:42;101913.59;;;15.80;73.09
21520;BME280;10921;53.614;9.882;2022-09-02T07:06:27;101933.22;;;16.18;72.07
21520;BME280;10921;53.614;9.882;2022-09-02T07:08:54;101933.84;;;16.30;70.85
21520;BME280;10921;53.614;9.882;2022-09-02T07:11:22;101932.31;;;16.45;70.45
21520;BME280;10921;53.614;9.882;2022-09-02T07:13:49;101937.47;;;16.56;70.52
21520;BME280;10921;53.614;9.882;2022-09-02T07:16:16;101916.44;;;16.60;69.35
21520;BME280;10921;53.614;9.882;2022-09-02T07:18:51;101936.94;;;16.88;69.97
21520;BME280;10921;53.614;9.882;2022-09-02T07:21:18;101906.81;;;16.93;68.38
21520;BME280;10921;53.614;9.882;2022-09-02T07:23:44;101937.72;;;17.24;67.88
21520;BME280;10921;53.614;9.882;2022-09-02T07:26:13;101930.19;;;17.36;66.60
21520;BME280;10921;53.614;9.882;2022-09-02T07:28:40;101932.78;;;17.45;65.35
21520;BME280;10921;53.614;9.882;2022-09-02T07:31:14;101934.53;;;17.54;65.19
21520;BME280;10921;53.614;9.882;2022-09-02T07:33:42;101931.84;;;17.63;64.92
21520;BME280;10921;53.614;9.882;2022-09-02T07:36:15;101926.88;;;17.68;65.63
21520;BME280;10921;53.614;9.882;2022-09-02T07:38:42;101929.59;;;17.76;64.26
21520;BME280;10921;53.614;9.882;2022-09-02T07:41:09;101911.06;;;17.81;63.76
21520;BME280;10921;53.614;9.882;2022-09-02T07:43:36;101929.53;;;18.02;63.71
21520;BME280;10921;53.614;9.882;2022-09-02T07:46:04;101916.56;;;18.13;62.69
21520;BME280;10921;53.614;9.882;2022-09-02T07:48:31;101917.13;;;18.33;62.51
21520;BME280;10921;53.614;9.882;2022-09-02T07:50:59;101927.81;;;18.59;61.16
21520;BME280;10921;53.614;9.882;2022-09-02T07:53:26;101925.66;;;18.79;60.49
21520;BME280;10921;53.614;9.882;2022-09-02T07:55:53;101904.16;;;18.85;59.42
21520;BME280;10921;53.614;9.882;2022-09-02T07:58:20;101895.69;;;18.96;59.11
21520;BME280;10921;53.614;9.882;2022-09-02T08:00:48;101895.19;;;19.01;59.62
21520;BME280;10921;53.614;9.882;2022-09-02T08:03:15;101916.47;;;19.20;57.99
21520;BME280;10921;53.614;9.882;2022-09-02T08:05:43;101909.72;;;19.24;57.33
21520;BME280;10921;53.614;9.882;2022-09-02T08:08:15;101913.22;;;19.33;56.84
21520;BME280;10921;53.614;9.882;2022-09-02T08:10:42;101910.00;;;19.38;57.56
21520;BME280;10921;53.614;9.882;2022-09-02T08:13:08;101918.94;;;19.46;56.74
21520;BME280;10921;53.614;9.882;2022-09-02T08:15:37;101929.13;;;19.52;56.93
21520;BME280;10921;53.614;9.882;2022-09-02T08:18:05;101914.69;;;19.60;56.48
21520;BME280;10921;53.614;9.882;2022-09-02T08:20:33;101914.00;;;19.66;56.05
21520;BME280;10921;53.614;9.882;2022-09-02T08:23:03;101911.97;;;19.68;55.83
21520;BME280;10921;53.614;9.882;2022-09-02T08:25:38;101916.47;;;19.84;56.16
21520;BME280;10921;53.614;9.882;2022-09-02T08:28:06;101919.47;;;19.89;55.67
21520;BME280;10921;53.614;9.882;2022-09-02T08:30:32;101900.19;;;19.92;54.55
21520;BME280;10921;53.614;9.882;2022-09-02T08:32:59;101913.47;;;20.10;53.82
21520;BME280;10921;53.614;9.882;2022-09-02T08:35:26;101905.25;;;20.18;55.79
21520;BME280;10921;53.614;9.882;2022-09-02T08:37:52;101878.72;;;20.13;53.06
21520;BME280;10921;53.614;9.882;2022-09-02T08:40:21;101908.88;;;20.41;52.90
21520;BME280;10921;53.614;9.882;2022-09-02T08:42:52;101900.00;;;20.47;53.40
21520;BME280;10921;53.614;9.882;2022-09-02T08:45:23;101909.72;;;20.64;52.37
21520;BME280;10921;53.614;9.882;2022-09-02T08:48:14;101908.28;;;20.77;51.67
21520;BME280;10921;53.614;9.882;2022-09-02T08:50:45;101908.19;;;20.85;51.15
21520;BME280;10921;53.614;9.882;2022-09-02T08:55:54;101908.34;;;21.06;51.70
21520;BME280;10921;53.614;9.882;2022-09-02T08:58:24;101901.50;;;21.10;50.47
21520;BME280;10921;53.614;9.882;2022-09-02T09:01:11;101908.66;;;21.26;50.92
21520;BME280;10921;53.614;9.882;2022-09-02T09:04:05;101909.91;;;21.38;51.02
21520;BME280;10921;53.614;9.882;2022-09-02T09:09:36;101893.22;;;21.56;49.62
21520;BME280;10921;53.614;9.882;2022-09-02T09:15:16;101893.19;;;21.85;48.15
21520;BME280;10921;53.614;9.882;2022-09-02T09:17:51;101887.94;;;22.13;48.54
21520;BME280;10921;53.614;9.882;2022-09-02T09:20:28;101886.97;;;22.42;47.98
21520;BME280;10921;53.614;9.882;2022-09-02T09:22:57;101885.03;;;22.78;46.22
21520;BME280;10921;53.614;9.882;2022-09-02T09:25:27;101844.59;;;23.03;46.08
21520;BME280;10921;53.614;9.882;2022-09-02T09:28:00;101879.78;;;23.67;45.50
21520;BME280;10921;53.614;9.882;2022-09-02T09:30:28;101869.63;;;24.02;43.58
21520;BME280;10921;53.614;9.882;2022-09-02T09:32:56;101878.34;;;24.39;42.06
21520;BME280;10921;53.614;9.882;2022-09-02T09:35:26;101838.47;;;24.51;41.53
21520;BME280;10921;53.614;9.882;2022-09-02T09:37:54;101844.97;;;24.89;41.05
21520;BME280;10921;53.614;9.882;2022-09-02T09:40:27;101868.03;;;25.33;40.72
21520;BME280;10921;53.614;9.882;2022-09-02T09:43:11;101873.59;;;25.78;42.03
21520;BME280;10921;53.614;9.882;2022-09-02T09:45:44;101863.00;;;25.95;39.47
21520;BME280;10921;53.614;9.882;2022-09-02T09:48:22;101861.34;;;26.25;39.38
21520;BME280;10921;53.614;9.882;2022-09-02T09:53:28;101863.97;;;26.70;38.51
21520;BME280;10921;53.614;9.882;2022-09-02T10:01:31;101855.72;;;27.19;37.37
21520;BME280;10921;53.614;9.882;2022-09-02T10:04:03;101848.44;;;27.31;37.68
21520;BME280;10921;53.614;9.882;2022-09-02T10:06:51;101849.56;;;27.42;36.77
21520;BME280;10921;53.614;9.882;2022-09-02T10:12:05;101847.41;;;27.81;37.69
21520;BME280;10921;53.614;9.882;2022-09-02T10:14:44;101843.75;;;27.87;34.49
21520;BME280;10921;53.614;9.882;2022-09-02T10:17:46;101835.47;;;28.05;35.78
21520;BME280;10921;53.614;9.882;2022-09-02T10:23:39;101823.28;;;28.31;34.28
21520;BME280;10921;53.614;9.882;2022-09-02T10:26:24;101819.47;;;28.44;33.63
21520;BME280;10921;53.614;9.882;2022-09-02T10:31:45;101831.44;;;28.49;33.54
21520;BME280;10921;53.614;9.882;2022-09-02T10:34:33;101822.03;;;28.57;32.95
21520;BME280;10921;53.614;9.882;2022-09-02T10:37:16;101816.66;;;28.62;33.59
21520;BME280;10921;53.614;9.882;2022-09-02T10:43:09;101808.19;;;28.98;34.63
21520;BME280;10921;53.614;9.882;2022-09-02T10:45:42;101808.06;;;28.70;32.34
21520;BME280;10921;53.614;9.882;2022-09-02T10:48:26;101801.75;;;28.69;32.68
21520;BME280;10921;53.614;9.882;2022-09-02T10:51:04;101790.72;;;28.58;32.69
21520;BME280;10921;53.614;9.882;2022-09-02T10:53:39;101798.03;;;28.52;33.81
21520;BME280;10921;53.614;9.882;2022-09-02T10:56:14;101794.75;;;28.32;33.25
21520;BME280;10921;53.614;9.882;2022-09-02T11:01:36;101792.25;;;28.19;33.93
21520;BME280;10921;53.614;9.882;2022-09-02T11:04:11;101784.66;;;28.02;32.99
21520;BME280;10921;53.614;9.882;2022-09-02T11:06:49;101789.03;;;27.92;33.69
21520;BME280;10921;53.614;9.882;2022-09-02T11:09:48;101783.56;;;27.92;33.87
21520;BME280;10921;53.614;9.882;2022-09-02T11:18:02;101776.75;;;28.24;33.98
21520;BME280;10921;53.614;9.882;2022-09-02T11:20:57;101780.47;;;28.65;33.63
21520;BME280;10921;53.614;9.882;2022-09-02T11:26:52;101764.72;;;29.35;32.29
21520;BME280;10921;53.614;9.882;2022-09-02T11:32:06;101761.88;;;29.99;31.28
21520;BME280;10921;53.614;9.882;2022-09-02T11:34:46;101750.78;;;30.27;32.28
21520;BME280;10921;53.614;9.882;2022-09-02T11:37:27;101723.09;;;30.34;29.15
21520;BME280;10921;53.614;9.882;2022-09-02T11:40:23;101746.09;;;30.78;30.40
21520;BME280;10921;53.614;9.882;2022-09-02T11:45:54;101755.78;;;31.02;29.56
21520;BME280;10921;53.614;9.882;2022-09-02T11:51:25;101748.00;;;30.77;28.58
21520;BME280;10921;53.614;9.882;2022-09-02T11:53:59;101747.19;;;30.43;28.84
21520;BME280;10921;53.614;9.882;2022-09-02T11:56:36;101748.63;;;30.13;28.15
21520;BME280;10921;53.614;9.882;2022-09-02T11:59:06;101731.63;;;29.70;29.29
21520;BME280;10921;53.614;9.882;2022-09-02T12:01:37;101717.53;;;29.38;30.61
21520;BME280;10921;53.614;9.882;2022-09-02T12:09:49;101726.47;;;29.05;30.71
21520;BME280;10921;53.614;9.882;2022-09-02T12:17:41;101723.63;;;28.89;30.70
21520;BME280;10921;53.614;9.882;2022-09-02T12:22:58;101715.63;;;28.64;31.31
21520;BME280;10921;53.614;9.882;2022-09-02T12:33:36;101703.22;;;28.61;31.05
21520;BME280;10921;53.614;9.882;2022-09-02T12:36:05;101697.81;;;28.78;31.49
21520;BME280;10921;53.614;9.882;2022-09-02T12:38:39;101708.59;;;29.31;33.20
21520;BME280;10921;53.614;9.882;2022-09-02T12:41:08;101701.78;;;29.22;31.48
21520;BME280;10921;53.614;9.882;2022-09-02T12:43:51;101679.56;;;29.24;31.03
21520;BME280;10921;53.614;9.882;2022-09-02T12:52:03;101698.28;;;29.38;30.92
21520;BME280;10921;53.614;9.882;2022-09-02T12:57:06;101706.44;;;29.22;29.49
21520;BME280;10921;53.614;9.882;2022-09-02T12:59:36;101694.44;;;29.11;30.09
21520;BME280;10921;53.614;9.882;2022-09-02T13:05:03;101687.78;;;28.95;31.47
21520;BME280;10921;53.614;9.882;2022-09-02T13:10:28;101681.72;;;28.70;31.84
21520;BME280;10921;53.614;9.882;2022-09-02T13:30:12;101665.16;;;29.05;31.54
21520;BME280;10921;53.614;9.882;2022-09-02T13:32:40;101659.13;;;28.91;30.54
21520;BME280;10921;53.614;9.882;2022-09-02T13:35:16;101664.13;;;28.94;29.96
21520;BME280;10921;53.614;9.882;2022-09-02T13:37:54;101601.84;;;28.60;30.80
21520;BME280;10921;53.614;9.882;2022-09-02T13:40:28;101654.25;;;28.82;30.85
21520;BME280;10921;53.614;9.882;2022-09-02T13:42:57;101659.25;;;28.73;30.96
21520;BME280;10921;53.614;9.882;2022-09-02T13:45:29;101645.44;;;28.68;31.17
21520;BME280;10921;53.614;9.882;2022-09-02T13:48:13;101635.75;;;28.65;30.35
21520;BME280;10921;53.614;9.882;2022-09-02T13:50:48;101640.53;;;28.82;30.57
21520;BME280;10921;53.614;9.882;2022-09-02T13:53:25;101639.03;;;29.02;31.32
21520;BME280;10921;53.614;9.882;2022-09-02T13:56:14;101629.31;;;29.12;29.76
21520;BME280;10921;53.614;9.882;2022-09-02T13:58:50;101610.84;;;29.24;29.32
21520;BME280;10921;53.614;9.882;2022-09-02T14:03:52;101628.91;;;29.20;29.18
21520;BME280;10921;53.614;9.882;2022-09-02T14:06:23;101620.41;;;29.50;29.77
21520;BME280;10921;53.614;9.882;2022-09-02T14:08:53;101604.13;;;29.03;28.82
21520;BME280;10921;53.614;9.882;2022-09-02T14:11:21;101614.78;;;28.99;28.83
21520;BME280;10921;53.614;9.882;2022-09-02T14:13:49;101607.28;;;28.95;29.05
21520;BME280;10921;53.614;9.882;2022-09-02T14:16:23;101605.91;;;29.09;29.59
21520;BME280;10921;53.614;9.882;2022-09-02T14:19:11;101599.59;;;29.25;29.48
21520;BME280;10921;53.614;9.882;2022-09-02T14:21:54;101601.03;;;29.28;28.20
21520;BME280;10921;53.614;9.882;2022-09-02T14:26:52;101573.59;;;29.45;27.72
21520;BME280;10921;53.614;9.882;2022-09-02T14:29:19;101591.59;;;29.52;27.49
21520;BME280;10921;53.614;9.882;2022-09-02T14:34:43;101596.31;;;29.40;28.08
21520;BME280;10921;53.614;9.882;2022-09-02T14:37:26;101595.84;;;29.15;28.32
21520;BME280;10921;53.614;9.882;2022-09-02T14:40:09;101585.94;;;28.85;29.00
21520;BME280;10921;53.614;9.882;2022-09-02T14:42:46;101597.44;;;28.59;29.67
21520;BME280;10921;53.614;9.882;2022-09-02T14:45:32;101578.19;;;28.30;30.08
21520;BME280;10921;53.614;9.882;2022-09-02T14:48:10;101589.78;;;28.21;30.46
21520;BME280;10921;53.614;9.882;2022-09-02T14:50:41;101595.22;;;27.97;29.78
21520;BME280;10921;53.614;9.882;2022-09-02T14:53:09;101589.16;;;27.84;30.74
21520;BME280;10921;53.614;9.882;2022-09-02T14:55:53;101596.31;;;27.73;30.32
21520;BME280;10921;53.614;9.882;2022-09-02T14:58:22;101593.50;;;27.50;30.29
21520;BME280;10921;53.614;9.882;2022-09-02T15:00:55;101593.69;;;27.37;30.69